Time;durP1;ratioP1;P1;durP2;ratioP2;P2;SDS_P1;SDS_P2;PMS_P1;PMS_P2;Temp;Humidity;BMP_temperature;BMP_pressure;BME280_temperature;BME280_humidity;BME280_pressure;Samples;Min_cycle;Max_cycle;Signal;HPM_P1;HPM_P2
2023/10/13 00:03:45;;;;;;;;;;;18.50;55.00;;;17.59;56.25;101059.59;12246758;19;19911;-83
2023/10/13 00:07:46;;;;;;;;;;;18.60;55.10;;;17.69;56.36;101084.31;12244085;19;19919;-83
2023/10/13 00:11:48;;;;;;;;;;;18.60;55.00;;;17.67;55.97;101076.50;12259716;19;19933;-83
2023/10/13 00:20:00;;;;;;;;;;;18.60;55.10;;;17.34;56.06;101037.78;12256181;19;19983;-82
2023/10/13 00:24:05;;;;;;;;;;;18.50;55.10;;;17.56;56.06;101067.78;12257113;19;19930;-82
2023/10/13 00:28:10;;;;;;;;;;;18.50;55.00;;;17.61;56.32;101071.72;12256184;19;22047;-82
2023/10/13 00:32:12;;;;;;;;;;;18.50;55.10;;;17.61;56.10;101073.53;12256742;19;19910;-82
2023/10/13 00:36:19;;;;;;;;;;;18.50;55.10;;;17.58;56.07;101071.97;12257674;19;19974;-83
2023/10/13 00:40:55;;;;;;;;;;;18.50;55.10;;;17.58;56.12;101081.66;12253522;19;20004;-83
2023/10/13 00:44:49;;;;;;;;;;;18.40;55.10;;;17.48;56.34;101063.09;12254110;19;19918;-82
2023/10/13 00:48:54;;;;;;;;;;;18.40;55.10;;;17.59;56.08;101072.81;12252814;19;19982;-83
2023/10/13 00:52:57;;;;;;;;;;;18.40;55.10;;;17.42;56.51;101043.28;12256135;19;19929;-83
2023/10/13 00:57:07;;;;;;;;;;;18.40;55.10;;;17.46;56.42;101047.34;12252668;19;19947;-82
2023/10/13 01:01:17;;;;;;;;;;;18.40;55.10;;;17.43;56.32;101039.69;12250545;19;19942;-82
2023/10/13 01:05:19;;;;;;;;;;;18.40;55.10;;;17.32;56.36;101028.31;12254795;19;19914;-83
2023/10/13 01:09:24;;;;;;;;;;;18.40;55.10;;;17.44;56.48;101051.94;12250446;19;20358;-83
2023/10/13 01:13:26;;;;;;;;;;;18.30;55.10;;;17.37;56.23;101044.63;12256718;19;19918;-83
2023/10/13 01:17:31;;;;;;;;;;;18.30;55.20;;;17.33;56.46;101041.38;12252788;19;19936;-83
2023/10/13 01:21:33;;;;;;;;;;;18.30;55.20;;;17.31;56.32;101037.16;12251437;19;20325;-83
2023/10/13 01:25:34;;;;;;;;;;;18.20;55.20;;;17.29;56.56;101031.19;12253986;19;20084;-83
2023/10/13 01:29:36;;;;;;;;;;;18.20;55.30;;;17.32;56.30;101041.50;12250301;19;19923;-83
2023/10/13 01:33:37;;;;;;;;;;;18.20;55.30;;;17.20;56.44;101036.22;12255168;19;19923;-82
2023/10/13 01:37:38;;;;;;;;;;;18.10;55.30;;;17.18;56.28;101042.59;12250720;19;20296;-83
2023/10/13 01:41:40;;;;;;;;;;;18.10;55.30;;;17.13;56.44;101034.19;12248576;19;20330;-82
2023/10/13 01:45:47;;;;;;;;;;;18.00;55.60;;;17.17;56.48;101039.06;12251320;19;19911;-83
2023/10/13 01:49:50;;;;;;;;;;;18.00;55.50;;;17.19;56.66;101049.53;12250975;19;19928;-82
2023/10/13 01:53:56;;;;;;;;;;;18.10;55.60;;;17.15;56.73;101035.75;12254672;19;19918;-83
2023/10/13 01:57:57;;;;;;;;;;;18.00;55.50;;;17.18;56.55;101042.59;12249484;19;19929;-83
2023/10/13 02:02:00;;;;;;;;;;;18.00;55.60;;;17.17;56.52;101047.00;12249884;19;20249;-83
2023/10/13 02:06:04;;;;;;;;;;;18.10;55.90;;;17.14;56.69;101031.41;12252848;19;19927;-82
2023/10/13 02:10:06;;;;;;;;;;;18.00;55.70;;;17.15;56.61;101035.75;12249917;19;19918;-82
2023/10/13 02:14:11;;;;;;;;;;;18.00;55.70;;;17.15;56.51;101043.66;12253461;19;19911;-82
2023/10/13 02:18:26;;;;;;;;;;;18.00;56.00;;;17.17;56.57;101033.78;12249928;19;20271;-83
2023/10/13 02:22:29;;;;;;;;;;;18.00;55.80;;;17.17;56.67;101031.16;12249840;19;20222;-83
2023/10/13 02:26:31;;;;;;;;;;;18.00;55.90;;;17.18;56.89;101017.03;12252022;19;20367;-82
2023/10/13 02:30:36;;;;;;;;;;;18.00;55.80;;;17.18;56.68;101011.75;12248235;19;19921;-83
2023/10/13 02:34:43;;;;;;;;;;;18.00;55.80;;;17.19;56.69;101018.69;12249637;19;19915;-82
2023/10/13 02:38:50;;;;;;;;;;;18.10;55.80;;;17.25;56.71;101007.69;12249221;19;19915;-82
2023/10/13 02:42:52;;;;;;;;;;;18.10;55.80;;;17.27;56.59;101007.53;12250631;19;19922;-83
2023/10/13 02:46:55;;;;;;;;;;;18.10;55.90;;;17.28;56.84;100997.81;12250077;19;19915;-82
2023/10/13 02:51:02;;;;;;;;;;;18.10;55.80;;;17.24;56.62;100982.22;12248958;19;20350;-82
2023/10/13 02:55:08;;;;;;;;;;;18.10;55.80;;;17.24;56.80;100978.75;12249854;19;19918;-82
2023/10/13 02:59:12;;;;;;;;;;;18.20;56.00;;;17.27;56.90;100977.66;12246806;19;19930;-81
2023/10/13 03:03:18;;;;;;;;;;;18.20;55.90;;;17.27;56.78;100969.75;12245543;19;19949;-81
2023/10/13 03:07:23;;;;;;;;;;;18.20;55.90;;;17.27;56.81;100961.84;12245876;19;19907;-82
2023/10/13 03:11:25;;;;;;;;;;;18.20;56.00;;;17.23;56.99;100967.34;12249606;19;19918;-83
2023/10/13 03:15:30;;;;;;;;;;;18.20;55.90;;;17.20;56.86;100959.69;12250167;19;19987;-82
2023/10/13 03:19:32;;;;;;;;;;;18.20;56.00;;;17.28;57.07;100971.41;12245119;19;19926;-83
2023/10/13 03:23:46;;;;;;;;;;;18.20;56.20;;;17.29;56.99;100957.28;12246709;19;19914;-83
2023/10/13 03:32:06;;;;;;;;;;;18.20;56.20;;;17.21;57.09;100927.03;12250863;19;19918;-83
2023/10/13 03:36:08;;;;;;;;;;;18.20;56.30;;;17.25;57.06;100927.63;12245941;19;19919;-83
2023/10/13 03:44:21;;;;;;;;;;;18.20;56.20;;;17.33;56.85;100919.94;12251198;19;19931;-82
2023/10/13 03:52:29;;;;;;;;;;;18.20;56.20;;;17.39;57.04;100908.03;12259099;19;19915;-82
2023/10/13 03:56:39;;;;;;;;;;;18.30;56.30;;;17.37;57.21;100909.97;12260133;19;19926;-82
2023/10/13 04:00:42;;;;;;;;;;;18.30;56.20;;;17.40;57.19;100904.44;12255964;19;19947;-83
2023/10/13 04:04:53;;;;;;;;;;;18.30;56.30;;;17.35;56.97;100883.69;12259729;19;19993;-83
2023/10/13 04:17:41;;;;;;;;;;;18.30;56.30;;;17.40;57.14;100902.63;12246747;19;19922;-82
2023/10/13 04:21:42;;;;;;;;;;;18.30;56.40;;;17.43;57.27;100904.19;12253388;19;19919;-83
2023/10/13 04:29:51;;;;;;;;;;;18.30;56.60;;;17.43;57.14;100891.81;12246672;19;19934;-82
2023/10/13 04:33:56;;;;;;;;;;;18.40;57.00;;;17.47;57.18;100885.34;12240755;19;19925;-82
2023/10/13 04:38:01;;;;;;;;;;;18.40;56.80;;;17.49;57.42;100882.56;12246021;19;20246;-82
2023/10/13 04:42:13;;;;;;;;;;;18.40;56.60;;;17.45;57.46;100865.31;12246950;19;19957;-82
2023/10/13 04:46:35;;;;;;;;;;;18.40;56.70;;;17.30;57.42;100834.88;12252839;19;20630;-83
2023/10/13 04:50:44;;;;;;;;;;;18.40;56.80;;;17.48;57.35;100868.53;12250645;19;19921;-83
2023/10/13 05:46:49;;;;;;;;;;;18.50;57.40;;;17.62;57.68;100851.53;12252284;19;19978;-83
2023/10/13 05:50:57;;;;;;;;;;;18.50;57.20;;;17.65;57.58;100856.56;12247243;19;19934;-82
2023/10/13 06:29:41;;;;;;;;;;;18.70;58.40;;;17.82;57.99;100815.59;12253219;19;19915;-83
2023/10/13 06:33:45;;;;;;;;;;;18.70;58.20;;;17.89;57.90;100832.59;12252626;19;19911;-84
2023/10/13 06:37:46;;;;;;;;;;;18.70;57.90;;;17.90;57.96;100825.47;12249053;19;19923;-83
2023/10/13 06:41:48;;;;;;;;;;;18.80;58.40;;;18.00;57.73;100833.47;12251557;19;19915;-82
2023/10/13 06:45:56;;;;;;;;;;;18.80;58.10;;;17.97;57.70;100826.66;12243970;19;19922;-82
2023/10/13 06:49:59;;;;;;;;;;;18.90;58.30;;;18.06;58.05;100838.25;12244516;19;19990;-83
2023/10/13 06:54:02;;;;;;;;;;;18.90;58.30;;;18.11;58.14;100836.03;12246260;19;19927;-83
2023/10/13 06:58:06;;;;;;;;;;;19.00;59.40;;;18.14;58.05;100841.91;12246401;19;19923;-82
2023/10/13 07:02:09;;;;;;;;;;;19.00;58.30;;;18.14;58.01;100825.22;12243974;19;19926;-82
2023/10/13 07:06:19;;;;;;;;;;;19.00;58.00;;;18.19;57.85;100819.53;12244822;19;19918;-82
2023/10/13 07:10:29;;;;;;;;;;;19.10;58.10;;;18.21;57.75;100814.97;12241627;19;19933;-83
2023/10/13 07:14:33;;;;;;;;;;;19.10;59.20;;;18.21;57.98;100818.44;12246090;19;20331;-83
2023/10/13 07:18:49;;;;;;;;;;;19.20;58.70;;;18.21;57.97;100810.50;12233127;19;19930;-82
2023/10/13 07:23:03;;;;;;;;;;;19.20;58.70;;;18.37;58.26;100817.97;12237959;19;20307;-83
2023/10/13 07:27:07;;;;;;;;;;;19.30;58.50;;;18.32;58.12;100807.78;12240609;19;19919;-83
2023/10/13 07:31:14;;;;;;;;;;;19.30;59.50;;;18.44;58.07;100805.03;12236820;19;19926;-82
2023/10/13 07:35:20;;;;;;;;;;;19.40;60.10;;;18.54;58.01;100793.50;12239288;19;20256;-82
2023/10/13 07:39:23;;;;;;;;;;;19.40;60.40;;;18.49;58.42;100777.19;12238540;19;20342;-82
2023/10/13 07:43:27;;;;;;;;;;;19.50;59.20;;;18.60;58.30;100789.47;12238801;19;19929;-83
2023/10/13 07:47:28;;;;;;;;;;;19.60;59.20;;;18.74;58.46;100791.81;12243450;19;19922;-85
2023/10/13 07:51:32;;;;;;;;;;;19.70;59.30;;;18.82;58.16;100791.09;12245038;19;19932;-83
2023/10/13 07:55:34;;;;;;;;;;;19.70;59.50;;;18.85;58.40;100784.69;12244048;19;19938;-83
2023/10/13 07:59:46;;;;;;;;;;;19.80;59.30;;;18.92;58.34;100786.66;12241302;19;19919;-83
2023/10/13 08:03:56;;;;;;;;;;;19.80;59.20;;;18.96;58.51;100780.13;12242089;19;19910;-84
2023/10/13 08:07:59;;;;;;;;;;;19.90;60.60;;;19.02;58.58;100787.50;12240798;19;19935;-83
2023/10/13 08:12:01;;;;;;;;;;;19.90;59.30;;;19.07;58.47;100789.75;12243903;19;19939;-83
2023/10/13 08:16:08;;;;;;;;;;;20.00;59.10;;;19.11;58.40;100777.06;12243557;19;19919;-83
2023/10/13 08:20:16;;;;;;;;;;;20.00;60.00;;;19.11;58.37;100761.19;12241515;19;20527;-83
2023/10/13 08:32:54;;;;;;;;;;;20.20;59.60;;;19.32;58.33;100759.22;12255204;19;20313;-81
2023/10/13 08:36:56;;;;;;;;;;;20.30;60.00;;;19.45;58.67;100754.47;12245072;19;19934;-81
2023/10/13 08:49:30;;;;;;;;;;;20.50;60.80;;;19.69;58.45;100749.75;12243499;19;20256;-81
2023/10/13 08:53:33;;;;;;;;;;;20.60;59.90;;;19.73;58.57;100746.63;12243992;19;19915;-81
2023/10/13 08:57:35;;;;;;;;;;;20.70;59.70;;;19.73;58.66;100714.84;12246552;19;19935;-82
2023/10/13 09:01:48;;;;;;;;;;;20.80;61.80;;;19.92;58.41;100729.00;12244054;19;20393;-82
2023/10/13 09:06:00;;;;;;;;;;;20.90;59.70;;;19.98;58.78;100728.41;12247947;19;19938;-81
2023/10/13 09:10:11;;;;;;;;;;;20.90;59.50;;;20.00;58.69;100715.88;12244335;19;19919;-82
2023/10/13 09:14:32;;;;;;;;;;;21.00;59.70;;;20.11;58.59;100732.41;12248631;19;19923;-82
2023/10/13 09:18:46;;;;;;;;;;;21.00;60.20;;;20.17;58.69;100712.44;12244126;19;19907;-82
2023/10/13 09:27:04;;;;;;;;;;;21.20;59.70;;;20.30;58.74;100712.91;12247068;19;19927;-82
2023/10/13 09:31:09;;;;;;;;;;;21.30;59.40;;;20.37;58.83;100712.34;12239543;19;20313;-81
2023/10/13 09:35:33;;;;;;;;;;;21.30;60.50;;;20.42;58.53;100708.25;12241589;19;20274;-82
2023/10/13 09:40:25;;;;;;;;;;;21.30;59.50;;;20.39;58.68;100687.34;12236451;19;19974;-82
2023/10/13 09:44:03;;;;;;;;;;;21.40;59.60;;;20.47;58.84;100686.59;12233270;19;20628;-81
2023/10/13 09:48:16;;;;;;;;;;;21.50;59.70;;;20.48;59.15;100675.00;12238880;19;19916;-81
2023/10/13 09:52:25;;;;;;;;;;;21.50;61.40;;;20.42;58.63;100646.41;12242485;19;19915;-82
2023/10/13 09:56:42;;;;;;;;;;;21.50;59.80;;;20.63;58.63;100659.41;12242817;19;19986;-81
2023/10/13 10:01:06;;;;;;;;;;;21.60;59.40;;;20.56;58.62;100640.59;12239106;19;19932;-82
2023/10/13 10:05:34;;;;;;;;;;;21.60;59.20;;;20.70;58.53;100649.84;12235909;19;19918;-81
2023/10/13 10:09:37;;;;;;;;;;;21.60;59.80;;;20.65;58.77;100631.72;12234261;19;19915;-82
2023/10/13 10:14:30;;;;;;;;;;;21.60;59.40;;;20.76;58.62;100636.78;12240605;19;19922;-81
2023/10/13 10:18:32;;;;;;;;;;;21.70;59.90;;;20.76;58.98;100620.88;12242166;19;19942;-81
2023/10/13 10:22:35;;;;;;;;;;;21.70;62.30;;;20.80;59.03;100613.44;12236838;19;19934;-82
2023/10/13 10:26:37;;;;;;;;;;;21.70;59.70;;;20.82;58.66;100618.59;12244333;19;20672;-82
2023/10/13 10:30:38;;;;;;;;;;;21.70;59.80;;;20.84;58.53;100629.91;12236226;19;19923;-81
2023/10/13 10:34:40;;;;;;;;;;;21.70;59.60;;;20.85;59.11;100629.75;12238885;19;20026;-82
2023/10/13 10:39:15;;;;;;;;;;;21.80;60.20;;;20.89;58.83;100622.31;12237466;19;19929;-82
2023/10/13 10:43:17;;;;;;;;;;;21.80;60.00;;;20.91;58.65;100617.69;12230386;19;20654;-82
2023/10/13 10:47:30;;;;;;;;;;;21.80;60.30;;;20.94;58.84;100610.22;12241238;19;19922;-82
2023/10/13 10:51:33;;;;;;;;;;;21.80;59.50;;;20.89;59.03;100598.41;12239957;19;19970;-82
2023/10/13 10:55:36;;;;;;;;;;;21.80;61.20;;;20.94;58.93;100609.41;12239915;19;19915;-81
2023/10/13 10:59:38;;;;;;;;;;;21.80;60.60;;;20.99;58.90;100592.03;12236121;19;19922;-82
2023/10/13 11:03:41;;;;;;;;;;;21.90;60.40;;;20.94;59.21;100578.38;12239109;19;20019;-81
2023/10/13 11:07:50;;;;;;;;;;;21.90;59.80;;;21.03;58.87;100595.19;12238112;19;19986;-82
2023/10/13 11:11:57;;;;;;;;;;;21.90;61.20;;;20.96;58.54;100568.44;12241291;19;20012;-82
2023/10/13 11:15:59;;;;;;;;;;;21.90;60.00;;;21.02;58.85;100559.00;12237868;19;19918;-82
2023/10/13 11:20:15;;;;;;;;;;;21.90;59.70;;;21.12;58.87;100553.59;12235085;19;19922;-81
2023/10/13 11:24:17;;;;;;;;;;;22.00;62.70;;;21.11;58.76;100542.13;12236826;19;19957;-82
2023/10/13 11:28:27;;;;;;;;;;;22.00;61.40;;;21.13;59.27;100539.31;12235325;19;20270;-82
2023/10/13 11:32:28;;;;;;;;;;;22.00;60.30;;;21.22;59.15;100541.03;12243669;19;19939;-81
2023/10/13 11:36:33;;;;;;;;;;;22.00;61.60;;;21.26;58.98;100525.63;12237149;19;19923;-82
2023/10/13 11:40:44;;;;;;;;;;;22.10;63.50;;;21.27;59.01;100536.06;12236051;19;19955;-82
2023/10/13 11:44:45;;;;;;;;;;;22.10;61.80;;;21.27;58.68;100519.31;12238247;19;19922;-82
2023/10/13 11:48:47;;;;;;;;;;;22.10;63.40;;;21.24;59.05;100503.69;12237482;19;19934;-82
2023/10/13 11:52:49;;;;;;;;;;;22.10;62.20;;;21.31;59.03;100516.19;12238996;19;19974;-82
2023/10/13 11:56:51;;;;;;;;;;;22.20;61.10;;;21.30;58.77;100500.38;12238420;19;19915;-81
2023/10/13 12:01:20;;;;;;;;;;;22.20;60.60;;;21.31;59.06;100489.63;12233265;19;19923;-82
2023/10/13 12:05:30;;;;;;;;;;;22.20;60.40;;;21.39;59.15;100499.47;12241379;19;19982;-81
2023/10/13 12:13:52;;;;;;;;;;;22.30;61.40;;;21.39;59.29;100473.75;12253738;19;20345;-81
2023/10/13 12:17:57;;;;;;;;;;;22.30;61.90;;;21.40;59.03;100466.59;12256310;19;19930;-82
2023/10/13 12:22:05;;;;;;;;;;;22.30;61.10;;;21.51;59.22;100468.94;12260463;19;19926;-81
2023/10/13 12:26:18;;;;;;;;;;;22.40;60.90;;;21.57;59.11;100470.13;12257358;19;20352;-82
2023/10/13 12:30:35;;;;;;;;;;;22.40;62.50;;;21.57;59.36;100457.66;12255120;19;19919;-82
2023/10/13 12:51:50;;;;;;;;;;;22.60;61.10;;;21.82;59.08;100423.16;12257578;19;19942;-82
2023/10/13 12:55:53;;;;;;;;;;;22.70;61.90;;;21.85;59.17;100417.53;12262943;19;19926;-85
2023/10/13 12:59:55;;;;;;;;;;;22.70;60.50;;;21.91;59.20;100400.06;12256936;19;19931;-82
2023/10/13 13:03:57;;;;;;;;;;;22.80;60.60;;;22.01;59.06;100401.56;12247071;19;20400;-82
2023/10/13 13:07:58;;;;;;;;;;;22.90;60.60;;;22.09;59.03;100398.91;12250357;19;19918;-82
2023/10/13 13:12:00;;;;;;;;;;;22.90;60.70;;;22.08;59.01;100391.06;12249264;19;20549;-82
2023/10/13 13:16:03;;;;;;;;;;;23.00;60.20;;;22.22;58.97;100397.56;12247415;19;19940;-81
2023/10/13 13:20:11;;;;;;;;;;;23.00;60.40;;;22.24;59.40;100368.97;12247504;19;19927;-82
2023/10/13 13:24:13;;;;;;;;;;;23.10;60.80;;;22.31;59.35;100375.28;12247871;19;19922;-83
2023/10/13 13:28:15;;;;;;;;;;;23.10;60.10;;;22.30;59.40;100354.97;12250617;19;19915;-82
2023/10/13 13:32:23;;;;;;;;;;;23.20;60.10;;;22.35;59.38;100346.50;12238923;19;19924;-82
2023/10/13 13:36:25;;;;;;;;;;;23.30;60.00;;;22.44;59.18;100348.97;12252094;19;19918;-81
2023/10/13 13:40:34;;;;;;;;;;;23.30;59.90;;;22.50;58.94;100350.13;12251703;19;19943;-83
2023/10/13 13:44:48;;;;;;;;;;;23.40;59.80;;;22.59;59.07;100348.25;12252760;19;19927;-82
2023/10/13 13:48:51;;;;;;;;;;;23.50;60.10;;;22.57;58.96;100337.75;12249055;19;19922;-82
2023/10/13 13:52:55;;;;;;;;;;;23.50;59.80;;;22.69;59.05;100347.06;12250742;19;19923;-83
2023/10/13 13:56:57;;;;;;;;;;;23.60;59.70;;;22.71;58.93;100330.88;12247899;19;19926;-82
2023/10/13 14:01:25;;;;;;;;;;;23.60;59.50;;;22.71;59.39;100318.44;12244677;19;19919;-81
2023/10/13 14:05:23;;;;;;;;;;;23.70;59.50;;;22.78;59.21;100318.53;12243221;19;19919;-82
2023/10/13 14:09:40;;;;;;;;;;;23.70;59.50;;;22.86;59.29;100315.84;12240819;19;20356;-81
2023/10/13 14:13:48;;;;;;;;;;;23.70;59.30;;;22.89;59.28;100315.50;12245077;19;19925;-81
2023/10/13 14:17:50;;;;;;;;;;;23.80;59.40;;;22.93;59.09;100306.16;12244142;19;19941;-81
2023/10/13 14:21:53;;;;;;;;;;;23.80;59.10;;;23.02;59.33;100311.47;12241346;19;19918;-82
2023/10/13 14:25:55;;;;;;;;;;;23.90;59.20;;;23.09;59.21;100299.13;12248710;19;19914;-82
2023/10/13 14:29:57;;;;;;;;;;;23.90;59.00;;;23.12;58.87;100304.09;12245238;19;19937;-82
2023/10/13 14:33:59;;;;;;;;;;;24.00;59.10;;;23.18;59.08;100292.72;12248541;19;19923;-81
2023/10/13 14:38:00;;;;;;;;;;;24.10;59.00;;;23.22;59.00;100293.19;12245722;19;19944;-81
2023/10/13 14:42:02;;;;;;;;;;;24.10;58.90;;;23.29;59.34;100286.97;12249371;19;20349;-81
2023/10/13 14:46:08;;;;;;;;;;;24.20;59.10;;;23.32;59.20;100285.78;12246529;19;19914;-81
2023/10/13 14:50:19;;;;;;;;;;;24.20;58.70;;;23.32;59.03;100277.78;12242920;19;19926;-81
2023/10/13 14:54:33;;;;;;;;;;;24.20;58.30;;;23.16;58.79;100242.25;12249044;19;19948;-82
2023/10/13 14:58:35;;;;;;;;;;;24.30;58.10;;;23.44;58.99;100273.69;12238918;19;19918;-82
2023/10/13 15:02:37;;;;;;;;;;;24.30;58.30;;;23.38;58.86;100251.22;12241927;19;19990;-81
2023/10/13 15:06:38;;;;;;;;;;;24.40;58.20;;;23.48;58.95;100266.16;12240891;19;19990;-82
2023/10/13 15:10:40;;;;;;;;;;;24.30;57.90;;;23.50;58.79;100258.81;12238233;19;19926;-82
2023/10/13 15:14:43;;;;;;;;;;;24.40;58.00;;;23.48;58.90;100251.00;12240630;19;19926;-82
2023/10/13 15:18:46;;;;;;;;;;;24.40;57.90;;;23.41;58.99;100242.91;12241355;19;20362;-82
2023/10/13 15:22:47;;;;;;;;;;;24.40;57.70;;;23.47;58.99;100248.53;12239369;19;19926;-82
2023/10/13 15:26:49;;;;;;;;;;;24.30;57.80;;;23.47;58.68;100243.19;12242394;19;19933;-81
2023/10/13 15:31:09;;;;;;;;;;;24.40;58.00;;;23.44;58.93;100238.19;12239341;19;20290;-81
2023/10/13 15:35:15;;;;;;;;;;;24.30;57.00;;;23.42;58.91;100236.56;12240581;19;20338;-82
2023/10/13 15:39:23;;;;;;;;;;;24.30;57.50;;;23.44;58.87;100235.53;12237552;19;19918;-81
2023/10/13 15:43:25;;;;;;;;;;;24.20;57.70;;;23.41;58.91;100226.91;12237900;19;19953;-81
2023/10/13 15:47:34;;;;;;;;;;;24.20;57.60;;;23.42;58.55;100219.75;12240006;19;19939;-81
2023/10/13 15:51:39;;;;;;;;;;;24.20;57.80;;;23.40;58.71;100209.25;12241639;19;19932;-81
2023/10/13 15:55:40;;;;;;;;;;;24.20;57.70;;;23.38;58.42;100215.78;12235196;19;19937;-81
2023/10/13 15:59:45;;;;;;;;;;;24.20;57.60;;;23.36;58.38;100210.63;12235079;19;19930;-82
2023/10/13 16:03:49;;;;;;;;;;;24.20;57.70;;;23.35;58.43;100203.63;12235976;19;19926;-81
2023/10/13 16:07:52;;;;;;;;;;;24.20;57.60;;;23.29;58.49;100196.38;12238261;19;19983;-81
2023/10/13 16:11:54;;;;;;;;;;;24.10;57.60;;;23.32;58.41;100203.19;12240432;19;20337;-81
2023/10/13 16:15:55;;;;;;;;;;;24.10;57.30;;;23.24;58.39;100185.41;12241515;19;19936;-82
2023/10/13 16:19:57;;;;;;;;;;;24.10;57.60;;;23.26;58.58;100193.25;12236404;19;19942;-81
2023/10/13 16:23:59;;;;;;;;;;;24.10;57.60;;;23.24;58.11;100180.09;12234959;19;19923;-82
2023/10/13 16:28:01;;;;;;;;;;;24.00;57.60;;;23.16;58.49;100173.00;12237536;19;19989;-81
2023/10/13 16:32:02;;;;;;;;;;;24.00;57.30;;;22.96;58.18;100137.25;12230474;19;19923;-82
2023/10/13 16:36:10;;;;;;;;;;;24.00;57.40;;;22.96;58.46;100134.56;12239433;19;19928;-82
2023/10/13 16:40:18;;;;;;;;;;;24.00;57.10;;;23.15;58.48;100174.00;12237439;19;20269;-82
2023/10/13 16:44:25;;;;;;;;;;;24.00;56.90;;;23.10;58.49;100163.06;12235530;19;19915;-81
2023/10/13 16:48:27;;;;;;;;;;;23.90;57.10;;;23.15;58.47;100165.19;12237279;19;20320;-82
2023/10/13 16:52:28;;;;;;;;;;;23.90;57.10;;;23.12;58.04;100163.72;12245951;19;19921;-82
2023/10/13 16:56:29;;;;;;;;;;;23.90;57.10;;;22.95;58.46;100139.03;12248114;19;19946;-83
2023/10/13 17:00:34;;;;;;;;;;;23.90;57.30;;;23.04;58.00;100157.66;12245462;19;19922;-83
2023/10/13 17:04:35;;;;;;;;;;;23.90;56.30;;;23.06;58.07;100160.94;12245397;19;19914;-82
2023/10/13 17:08:37;;;;;;;;;;;23.80;57.00;;;23.04;57.95;100153.16;12249629;19;19926;-83
2023/10/13 17:12:38;;;;;;;;;;;23.80;57.10;;;23.03;58.17;100146.16;12252009;19;19922;-83
2023/10/13 17:16:39;;;;;;;;;;;23.80;57.10;;;22.99;58.26;100150.19;12250771;19;19922;-82
2023/10/13 17:20:42;;;;;;;;;;;23.80;57.20;;;22.94;58.25;100142.69;12249533;19;19934;-82
2023/10/13 17:24:43;;;;;;;;;;;23.80;56.80;;;22.99;58.23;100163.50;12248350;19;19918;-82
2023/10/13 17:28:45;;;;;;;;;;;23.80;56.90;;;22.87;58.35;100147.09;12250149;19;19918;-83
2023/10/13 17:32:46;;;;;;;;;;;23.70;56.90;;;22.95;57.93;100152.38;12246000;19;20038;-82
2023/10/13 17:36:48;;;;;;;;;;;23.70;56.70;;;22.99;58.26;100162.69;12247368;19;19978;-82
2023/10/13 17:40:49;;;;;;;;;;;23.70;57.10;;;22.99;58.00;100158.19;12245613;19;19923;-81
2023/10/13 17:44:52;;;;;;;;;;;23.80;57.00;;;22.99;58.22;100160.03;12250649;19;19922;-81
2023/10/13 17:48:55;;;;;;;;;;;23.70;57.00;;;22.97;57.83;100146.88;12248463;19;19926;-81
2023/10/13 17:52:57;;;;;;;;;;;23.80;56.90;;;22.97;58.25;100147.69;12250343;19;19953;-82
2023/10/13 17:57:00;;;;;;;;;;;23.70;56.70;;;22.93;58.13;100157.03;12245397;19;19930;-82
2023/10/13 18:01:06;;;;;;;;;;;23.70;56.70;;;22.95;57.88;100155.03;12243367;19;19974;-82
2023/10/13 18:05:15;;;;;;;;;;;23.70;56.50;;;22.89;57.85;100137.09;12247410;19;19957;-82
2023/10/13 18:09:17;;;;;;;;;;;23.70;56.30;;;22.95;57.87;100138.19;12245663;19;19922;-82
2023/10/13 18:13:18;;;;;;;;;;;23.80;56.70;;;23.06;58.02;100150.28;12247730;19;19911;-82
2023/10/13 18:17:21;;;;;;;;;;;23.80;55.90;;;23.05;57.66;100138.00;12249108;19;19930;-82
2023/10/13 18:21:23;;;;;;;;;;;23.80;56.40;;;23.05;57.98;100130.00;12244727;19;19922;-82
2023/10/13 18:25:24;;;;;;;;;;;23.90;56.20;;;23.05;57.82;100116.69;12242067;19;19940;-82
2023/10/13 18:29:26;;;;;;;;;;;23.80;56.10;;;23.09;57.59;100129.47;12244842;19;19922;-81
2023/10/13 18:33:28;;;;;;;;;;;23.90;55.50;;;23.11;58.01;100127.44;12246945;19;19914;-82
2023/10/13 18:37:30;;;;;;;;;;;23.90;56.10;;;22.87;57.74;100088.53;12246315;19;19927;-83
2023/10/13 18:41:31;;;;;;;;;;;23.90;56.20;;;22.93;57.53;100093.13;12247351;19;19914;-82
2023/10/13 18:45:32;;;;;;;;;;;23.90;56.10;;;23.08;57.53;100116.31;12246356;19;19957;-82
2023/10/13 18:49:37;;;;;;;;;;;24.00;55.20;;;23.18;57.81;100119.56;12245170;19;19922;-82
2023/10/13 18:53:40;;;;;;;;;;;24.00;56.10;;;23.18;57.71;100111.56;12246557;19;19907;-82
2023/10/13 18:57:43;;;;;;;;;;;24.00;56.00;;;23.15;57.86;100111.94;12245769;19;19915;-82
2023/10/13 19:01:48;;;;;;;;;;;24.00;55.70;;;23.21;57.76;100111.19;12247114;19;20318;-82
2023/10/13 19:05:55;;;;;;;;;;;24.00;55.60;;;23.17;57.39;100100.09;12248877;19;19970;-82
2023/10/13 19:09:56;;;;;;;;;;;24.00;55.40;;;23.22;57.83;100096.84;12240272;19;19922;-82
2023/10/13 19:13:58;;;;;;;;;;;24.00;55.50;;;23.25;57.36;100107.16;12241803;19;19918;-82
2023/10/13 19:18:01;;;;;;;;;;;24.10;55.70;;;23.25;57.37;100096.50;12243612;19;20325;-82
2023/10/13 19:22:06;;;;;;;;;;;24.10;54.70;;;23.26;57.71;100092.00;12249990;19;19959;-82
2023/10/13 19:26:13;;;;;;;;;;;24.10;55.60;;;23.30;57.25;100085.28;12250667;19;19914;-82
2023/10/13 19:30:20;;;;;;;;;;;24.10;55.40;;;23.30;57.38;100074.63;12249143;19;19915;-82
2023/10/13 19:34:22;;;;;;;;;;;24.10;55.10;;;23.31;57.62;100068.31;12247762;19;19935;-82
2023/10/13 19:38:28;;;;;;;;;;;24.20;55.10;;;23.33;57.47;100071.59;12252153;19;19919;-82
2023/10/13 19:42:30;;;;;;;;;;;24.20;55.30;;;23.32;57.19;100073.44;12249885;19;19943;-82
2023/10/13 19:46:33;;;;;;;;;;;24.20;55.40;;;23.33;57.06;100060.94;12249763;19;19927;-83
2023/10/13 19:50:36;;;;;;;;;;;24.20;54.90;;;23.33;57.09;100059.13;12248022;19;19937;-82
2023/10/13 19:54:38;;;;;;;;;;;24.20;52.50;;;23.33;57.29;100050.28;12246714;19;19907;-83
2023/10/13 19:58:40;;;;;;;;;;;24.20;54.60;;;23.32;57.35;100049.44;12249023;19;20319;-83
2023/10/13 20:02:47;;;;;;;;;;;24.10;53.30;;;23.31;57.06;100053.13;12245782;19;19911;-83
2023/10/13 20:06:54;;;;;;;;;;;24.20;53.10;;;23.37;57.25;100055.06;12247438;19;19907;-82
2023/10/13 20:10:57;;;;;;;;;;;24.20;53.10;;;23.34;57.46;100049.28;12242898;19;20347;-83
2023/10/13 20:14:59;;;;;;;;;;;24.20;54.20;;;23.41;57.02;100051.03;12249215;19;19915;-83
2023/10/13 20:19:01;;;;;;;;;;;24.20;54.40;;;23.39;57.29;100047.72;12242630;19;19959;-82
2023/10/13 20:23:02;;;;;;;;;;;24.20;54.10;;;23.41;56.78;100040.38;12243515;19;20245;-82
2023/10/13 20:27:04;;;;;;;;;;;24.30;54.20;;;23.46;57.12;100050.44;12251325;19;19918;-82
2023/10/13 20:31:05;;;;;;;;;;;24.30;54.60;;;23.51;56.99;100053.38;12253619;19;19947;-82
2023/10/13 20:35:07;;;;;;;;;;;24.30;54.00;;;23.36;57.07;100013.44;12257224;19;19934;-82
2023/10/13 20:39:23;;;;;;;;;;;24.30;53.10;;;23.50;57.00;100030.44;12254695;19;19921;-82
2023/10/13 20:43:25;;;;;;;;;;;24.30;54.20;;;23.53;56.73;100034.56;12252906;19;19923;-83
2023/10/13 20:47:27;;;;;;;;;;;24.30;53.80;;;23.52;56.83;100019.56;12254362;19;20258;-82
2023/10/13 20:51:30;;;;;;;;;;;24.40;53.80;;;23.44;56.78;100001.88;12256688;19;19923;-83
2023/10/13 20:55:37;;;;;;;;;;;24.30;54.10;;;23.50;56.59;100011.78;12254799;19;19923;-83
2023/10/13 20:59:39;;;;;;;;;;;24.30;53.70;;;23.51;56.88;100004.59;12253179;19;20039;-82
2023/10/13 21:03:41;;;;;;;;;;;24.30;53.90;;;23.51;56.79;99999.25;12252662;19;19983;-82